createdAt,value
2022-08-03T00:01:42.626Z,20.05
2022-08-03T00:04:12.019Z,20.03
2022-08-03T00:06:40.012Z,20.01
2022-08-03T00:09:10.473Z,20.01
2022-08-03T00:11:38.585Z,20.07
2022-08-03T00:14:07.570Z,20.17
2022-08-03T00:16:35.594Z,20.16
2022-08-03T00:19:04.069Z,20.11
2022-08-03T00:21:32.001Z,20.00
2022-08-03T00:24:00.712Z,19.99
2022-08-03T00:26:30.531Z,19.98
2022-08-03T00:28:58.497Z,19.99
2022-08-03T00:31:29.686Z,20.02
2022-08-03T00:34:08.192Z,19.95
2022-08-03T00:36:36.310Z,19.93
2022-08-03T00:39:04.217Z,19.93
2022-08-03T00:41:33.412Z,19.93
2022-08-03T00:44:01.294Z,19.89
2022-08-03T00:46:29.142Z,19.89
2022-08-03T00:48:57.217Z,19.95
2022-08-03T00:51:25.155Z,19.94
2022-08-03T00:53:53.165Z,19.92
2022-08-03T00:56:21.105Z,20.02
2022-08-03T00:58:51.210Z,20.10
2022-08-03T01:01:19.072Z,20.18
2022-08-03T01:03:47.436Z,20.17
2022-08-03T01:06:19.658Z,20.08
2022-08-03T01:08:53.802Z,20.05
2022-08-03T01:11:32.942Z,19.99
2022-08-03T01:14:18.941Z,19.99
2022-08-03T01:16:55.980Z,19.92
2022-08-03T01:19:37.521Z,19.94
2022-08-03T01:22:32.256Z,19.97
2022-08-03T01:25:04.532Z,20.14
2022-08-03T01:27:47.123Z,20.16
2022-08-03T01:30:16.656Z,20.17
2022-08-03T01:33:01.151Z,20.09
2022-08-03T01:35:35.486Z,19.96
2022-08-03T01:38:12.685Z,19.96
2022-08-03T01:40:42.256Z,20.06
2022-08-03T01:43:13.223Z,20.11
2022-08-03T01:45:45.136Z,19.93
2022-08-03T01:48:16.860Z,19.89
2022-08-03T01:50:46.501Z,19.92
2022-08-03T01:53:16.567Z,19.83
2022-08-03T01:55:45.561Z,19.90
2022-08-03T01:58:16.036Z,19.91
2022-08-03T02:00:47.921Z,19.90
2022-08-03T02:03:17.515Z,19.97
2022-08-03T02:05:46.865Z,20.02
2022-08-03T02:08:17.114Z,20.16
2022-08-03T02:10:47.527Z,20.13
2022-08-03T02:13:17.908Z,20.09
2022-08-03T02:15:48.372Z,20.11
2022-08-03T02:18:17.722Z,20.12
2022-08-03T02:20:46.235Z,20.12
2022-08-03T02:23:19.413Z,20.08
2022-08-03T02:25:51.980Z,20.20
2022-08-03T02:28:22.111Z,20.24
2022-08-03T02:30:56.515Z,20.27
2022-08-03T02:33:29.298Z,20.24
2022-08-03T02:35:58.798Z,20.21
2022-08-03T02:38:32.265Z,20.26
2022-08-03T02:41:00.994Z,20.18
2022-08-03T02:43:56.809Z,20.16
2022-08-03T02:46:23.816Z,20.26
2022-08-03T02:48:54.956Z,20.28
2022-08-03T02:51:24.798Z,20.26
2022-08-03T02:53:54.264Z,20.22
2022-08-03T02:56:24.424Z,20.18
2022-08-03T02:58:53.425Z,20.14
2022-08-03T03:01:24.110Z,20.07
2022-08-03T03:03:54.808Z,20.13
2022-08-03T03:06:25.252Z,20.14
2022-08-03T03:08:59.799Z,20.04
2022-08-03T03:11:28.639Z,20.02
2022-08-03T03:13:58.551Z,19.99
2022-08-03T03:16:30.834Z,19.95
2022-08-03T03:18:59.562Z,19.96
2022-08-03T03:21:28.727Z,19.92
2022-08-03T03:23:57.213Z,19.93
2022-08-03T03:26:25.124Z,19.91
2022-08-03T03:28:53.428Z,19.88
2022-08-03T03:31:21.401Z,19.93
2022-08-03T03:33:51.085Z,19.83
2022-08-03T03:36:19.482Z,19.84
2022-08-03T03:38:47.408Z,19.82
2022-08-03T03:41:15.798Z,19.84
2022-08-03T03:43:44.383Z,19.90
2022-08-03T03:46:13.916Z,19.96
2022-08-03T03:48:42.096Z,19.95
2022-08-03T03:51:11.611Z,19.98
2022-08-03T03:53:39.570Z,19.84
2022-08-03T03:56:07.505Z,19.90
2022-08-03T03:58:35.343Z,20.02
2022-08-03T04:01:03.252Z,20.05
2022-08-03T04:03:31.350Z,20.02
2022-08-03T04:06:16.926Z,19.97
2022-08-03T04:09:03.943Z,19.79
2022-08-03T04:11:37.567Z,19.80
2022-08-03T04:14:09.991Z,19.68
2022-08-03T04:16:43.667Z,19.69
2022-08-03T04:19:13.078Z,19.57
2022-08-03T04:21:44.289Z,19.57
2022-08-03T04:24:16.598Z,19.51
2022-08-03T04:26:52.330Z,19.51
2022-08-03T04:29:22.927Z,19.62
2022-08-03T04:31:53.331Z,19.61
2022-08-03T04:34:21.232Z,19.58
2022-08-03T04:36:54.864Z,19.69
2022-08-03T04:39:27.320Z,19.69
2022-08-03T04:42:07.360Z,19.68
2022-08-03T04:44:38.986Z,19.68
2022-08-03T04:47:07.188Z,19.90
2022-08-03T04:49:38.018Z,19.92
2022-08-03T04:52:08.309Z,19.97
2022-08-03T04:54:42.483Z,20.02
2022-08-03T04:57:22.357Z,20.05
2022-08-03T04:59:58.158Z,20.05
2022-08-03T05:02:30.503Z,20.06
2022-08-03T05:04:58.649Z,20.15
2022-08-03T05:07:26.578Z,20.07
2022-08-03T05:10:14.895Z,20.12
2022-08-03T05:12:45.658Z,20.09
2022-08-03T05:15:13.939Z,20.17
2022-08-03T05:17:42.701Z,20.36
2022-08-03T05:20:12.316Z,20.36
2022-08-03T05:22:40.359Z,20.41
2022-08-03T05:25:10.149Z,20.62
2022-08-03T05:27:47.786Z,20.62
2022-08-03T05:30:30.968Z,20.70
2022-08-03T05:33:03.238Z,20.70
2022-08-03T05:35:57.366Z,20.86
2022-08-03T05:38:23.790Z,20.82
2022-08-03T05:41:22.649Z,21.01
2022-08-03T05:43:46.167Z,20.96
2022-08-03T05:46:14.081Z,21.07
2022-08-03T05:48:42.476Z,21.16
2022-08-03T05:51:11.882Z,21.20
2022-08-03T05:53:40.291Z,21.25
2022-08-03T05:56:14.040Z,21.33
2022-08-03T05:58:44.343Z,21.36
2022-08-03T06:01:12.409Z,21.49
2022-08-03T06:03:40.393Z,21.70
2022-08-03T06:06:08.534Z,21.71
2022-08-03T06:08:36.619Z,21.80
2022-08-03T06:11:04.940Z,21.86
2022-08-03T06:13:34.929Z,21.87
2022-08-03T06:16:03.101Z,22.09
2022-08-03T06:18:31.003Z,22.28
2022-08-03T06:21:09.453Z,22.41
2022-08-03T06:23:54.532Z,22.40
2022-08-03T06:26:27.809Z,22.45
2022-08-03T06:28:57.229Z,22.46
2022-08-03T06:31:33.451Z,22.57
2022-08-03T06:34:33.069Z,22.84
2022-08-03T06:36:52.675Z,22.91
2022-08-03T06:39:23.439Z,23.04
2022-08-03T06:41:53.463Z,23.03
2022-08-03T06:44:22.787Z,23.12
2022-08-03T06:46:51.182Z,23.33
2022-08-03T06:49:19.210Z,23.41
2022-08-03T06:52:05.890Z,23.38
2022-08-03T06:54:36.381Z,23.48
2022-08-03T06:57:04.978Z,23.51
2022-08-03T07:00:07.591Z,23.55
2022-08-03T07:02:22.137Z,23.76
2022-08-03T07:04:50.381Z,23.90
2022-08-03T07:07:19.522Z,24.03
2022-08-03T07:09:57.317Z,24.17
2022-08-03T07:12:27.765Z,24.35
2022-08-03T07:15:02.947Z,24.38
2022-08-03T07:17:34.503Z,24.54
2022-08-03T07:20:04.709Z,24.47
2022-08-03T07:22:32.761Z,24.57
2022-08-03T07:25:01.081Z,24.58
2022-08-03T07:27:29.832Z,24.68
2022-08-03T07:30:00.237Z,24.79
2022-08-03T07:32:31.275Z,24.85
2022-08-03T07:35:01.122Z,25.07
2022-08-03T07:37:30.499Z,25.12
2022-08-03T07:39:58.601Z,25.17
2022-08-03T07:42:26.757Z,25.11
2022-08-03T07:44:57.275Z,25.28
2022-08-03T07:47:34.964Z,25.49
2022-08-03T07:50:05.603Z,25.64
2022-08-03T07:52:49.512Z,25.67
2022-08-03T07:55:18.483Z,25.69
2022-08-03T07:57:46.529Z,25.79
2022-08-03T08:00:17.474Z,25.80
2022-08-03T08:02:47.267Z,25.89
2022-08-03T08:05:15.288Z,25.96
2022-08-03T08:07:43.311Z,25.96
2022-08-03T08:10:21.114Z,26.20
2022-08-03T08:12:49.600Z,26.29
2022-08-03T08:15:17.615Z,26.33
2022-08-03T08:17:49.871Z,26.38
2022-08-03T08:20:28.436Z,26.59
2022-08-03T08:23:01.600Z,26.68
2022-08-03T08:25:31.377Z,26.74
2022-08-03T08:28:30.278Z,26.82
2022-08-03T08:30:50.235Z,26.89
2022-08-03T08:33:23.222Z,26.86
2022-08-03T08:35:54.312Z,26.99
2022-08-03T08:38:23.093Z,27.08
2022-08-03T08:40:51.626Z,27.21
2022-08-03T08:43:19.962Z,27.25
2022-08-03T08:45:50.299Z,27.27
2022-08-03T08:48:24.139Z,27.40
2022-08-03T08:50:54.548Z,27.49
2022-08-03T08:53:27.306Z,27.53
2022-08-03T08:56:00.949Z,27.58
2022-08-03T08:58:30.584Z,27.49
2022-08-03T09:00:58.667Z,27.51
2022-08-03T09:03:30.045Z,27.67
2022-08-03T09:06:02.439Z,27.67
2022-08-03T09:08:31.901Z,27.64
2022-08-03T09:11:00.605Z,27.78
2022-08-03T09:13:29.371Z,27.77
2022-08-03T09:16:14.431Z,27.73
2022-08-03T09:18:45.017Z,27.95
2022-08-03T09:21:34.396Z,28.02
2022-08-03T09:24:06.185Z,28.18
2022-08-03T09:26:51.939Z,28.12
2022-08-03T09:29:22.576Z,28.04
2022-08-03T09:31:50.482Z,28.15
2022-08-03T09:34:20.328Z,28.14
2022-08-03T09:36:49.420Z,28.13
2022-08-03T09:39:18.854Z,28.26
2022-08-03T09:41:49.607Z,28.21
2022-08-03T09:44:25.795Z,28.20
2022-08-03T09:46:56.866Z,28.39
2022-08-03T09:49:26.474Z,28.36
2022-08-03T09:52:31.606Z,28.32
2022-08-03T09:54:43.878Z,28.43
2022-08-03T09:57:23.104Z,28.66
2022-08-03T09:59:53.908Z,28.72
2022-08-03T10:02:41.461Z,28.82
2022-08-03T10:05:19.464Z,28.86
2022-08-03T10:07:49.692Z,28.90
2022-08-03T10:10:30.496Z,29.07
2022-08-03T10:13:01.268Z,29.15
2022-08-03T10:16:21.200Z,29.22
2022-08-03T10:18:19.472Z,29.04
2022-08-03T10:20:52.695Z,29.19
2022-08-03T10:23:22.529Z,29.37
2022-08-03T10:25:56.162Z,29.79
2022-08-03T10:28:24.668Z,30.43
2022-08-03T10:30:56.333Z,30.55
2022-08-03T10:33:52.044Z,30.47
2022-08-03T10:36:18.561Z,30.05
2022-08-03T10:38:52.781Z,30.29
2022-08-03T10:41:22.413Z,31.06
2022-08-03T10:43:54.483Z,31.29
2022-08-03T10:46:23.182Z,31.23
2022-08-03T10:48:52.834Z,31.23
2022-08-03T10:51:24.148Z,31.54
2022-08-03T10:53:55.001Z,31.67
2022-08-03T10:56:58.335Z,31.89
2022-08-03T10:59:59.341Z,31.70
2022-08-03T11:03:14.471Z,31.87
2022-08-03T11:05:43.672Z,31.53
2022-08-03T11:08:34.834Z,31.30
2022-08-03T11:11:28.577Z,31.46
2022-08-03T11:14:02.761Z,31.99
2022-08-03T11:16:31.894Z,32.94
2022-08-03T11:19:02.748Z,33.86
2022-08-03T11:21:54.166Z,33.80
2022-08-03T11:24:58.872Z,34.56
2022-08-03T11:27:30.482Z,35.02
2022-08-03T11:30:01.183Z,34.61
2022-08-03T11:33:01.373Z,35.04
2022-08-03T11:35:31.807Z,36.04
2022-08-03T11:38:07.115Z,36.87
2022-08-03T11:40:41.060Z,37.51
2022-08-03T11:43:33.899Z,36.76
2022-08-03T11:46:03.380Z,36.99
2022-08-03T11:48:37.312Z,36.49
2022-08-03T11:51:07.301Z,36.24
2022-08-03T11:53:41.738Z,37.11
2022-08-03T11:56:12.620Z,36.77
2022-08-03T11:59:09.347Z,36.57
2022-08-03T12:01:37.527Z,36.76
2022-08-03T12:04:06.709Z,39.24
2022-08-03T12:06:54.588Z,37.92
2022-08-03T12:09:23.460Z,38.03
2022-08-03T12:12:00.381Z,37.48
2022-08-03T12:14:50.424Z,37.42
2022-08-03T12:17:19.405Z,37.01
2022-08-03T12:19:47.963Z,38.08
2022-08-03T12:22:16.845Z,37.73
2022-08-03T12:24:47.441Z,37.80
2022-08-03T12:27:25.371Z,37.55
2022-08-03T12:29:58.774Z,37.71
2022-08-03T12:32:27.405Z,37.06
2022-08-03T12:35:00.248Z,36.86
2022-08-03T12:37:28.765Z,35.64
2022-08-03T12:40:02.346Z,35.47
2022-08-03T12:42:32.399Z,35.38
2022-08-03T12:45:02.098Z,35.18
2022-08-03T12:47:29.956Z,34.88
2022-08-03T12:49:57.855Z,35.05
2022-08-03T12:52:27.259Z,35.22
2022-08-03T12:54:57.183Z,35.30
2022-08-03T12:57:25.802Z,34.63
2022-08-03T12:59:55.930Z,34.31
2022-08-03T13:02:27.608Z,34.82
2022-08-03T13:04:56.517Z,36.92
2022-08-03T13:07:24.457Z,37.51
2022-08-03T13:09:54.725Z,37.51
2022-08-03T13:12:24.979Z,39.25
2022-08-03T13:14:55.950Z,38.39
2022-08-03T13:17:25.755Z,40.09
2022-08-03T13:19:53.845Z,38.59
2022-08-03T13:22:23.848Z,39.25
2022-08-03T13:24:53.472Z,39.36
2022-08-03T13:28:01.729Z,39.67
2022-08-03T13:30:11.406Z,37.81
2022-08-03T13:32:40.913Z,36.65
2022-08-03T13:35:10.311Z,36.56
2022-08-03T13:37:39.069Z,35.98
2022-08-03T13:40:09.088Z,35.73
2022-08-03T13:42:39.728Z,35.85
2022-08-03T13:45:09.251Z,36.08
2022-08-03T13:47:38.046Z,35.87
2022-08-03T13:50:08.111Z,35.25
2022-08-03T13:52:37.167Z,34.93
2022-08-03T13:55:07.387Z,34.57
2022-08-03T13:58:04.604Z,34.84
2022-08-03T14:00:28.941Z,34.66
2022-08-03T14:03:05.138Z,34.01
2022-08-03T14:05:35.721Z,33.88
2022-08-03T14:08:05.636Z,34.03
2022-08-03T14:10:35.460Z,34.30
2022-08-03T14:13:06.765Z,34.24
2022-08-03T14:15:37.978Z,34.26
2022-08-03T14:18:15.352Z,34.43
2022-08-03T14:20:49.049Z,33.99
2022-08-03T14:23:20.078Z,33.84
2022-08-03T14:25:52.539Z,34.52
2022-08-03T14:28:22.541Z,34.60
2022-08-03T14:30:50.940Z,34.57
2022-08-03T14:33:19.000Z,33.71
2022-08-03T14:35:51.846Z,34.52
2022-08-03T14:38:20.224Z,35.38
2022-08-03T14:40:49.152Z,34.67
2022-08-03T14:43:20.183Z,35.18
2022-08-03T14:45:48.544Z,35.56
2022-08-03T14:50:24.399Z,35.16
2022-08-03T14:51:06.323Z,34.97
2022-08-03T14:53:35.951Z,35.64
2022-08-03T14:56:09.383Z,35.76
2022-08-03T14:58:43.103Z,34.74
2022-08-03T15:02:05.168Z,34.88
2022-08-03T15:03:59.583Z,35.91
2022-08-03T15:06:28.887Z,35.79
2022-08-03T15:09:21.553Z,36.08
2022-08-03T15:11:44.986Z,35.72
2022-08-03T15:14:13.520Z,35.54
2022-08-03T15:16:43.140Z,35.74
2022-08-03T15:20:02.079Z,35.26
2022-08-03T15:22:00.933Z,35.63
2022-08-03T15:24:29.418Z,35.43
2022-08-03T15:26:57.456Z,35.07
2022-08-03T15:30:08.998Z,34.96
2022-08-03T15:32:13.248Z,35.51
2022-08-03T15:34:41.075Z,35.19
2022-08-03T15:37:20.979Z,35.01
2022-08-03T15:39:59.219Z,34.52
2022-08-03T15:42:28.358Z,34.88
2022-08-03T15:44:56.389Z,34.95
2022-08-03T15:47:25.413Z,35.62
2022-08-03T15:49:53.626Z,35.38
2022-08-03T15:52:22.870Z,35.27
2022-08-03T15:54:50.801Z,35.38
2022-08-03T15:57:19.095Z,35.56
2022-08-03T15:59:47.343Z,35.45
2022-08-03T16:02:15.331Z,35.54
2022-08-03T16:04:43.197Z,35.23
2022-08-03T16:07:12.760Z,34.37
2022-08-03T16:09:44.018Z,35.23
2022-08-03T16:12:16.102Z,35.78
2022-08-03T16:14:52.509Z,35.94
2022-08-03T16:17:22.082Z,35.59
2022-08-03T16:19:50.428Z,35.38
2022-08-03T16:22:22.887Z,35.41
2022-08-03T16:24:53.434Z,35.55
2022-08-03T16:27:36.849Z,35.34
2022-08-03T16:30:07.795Z,34.82
2022-08-03T16:32:42.079Z,35.25
2022-08-03T16:35:19.735Z,35.38
2022-08-03T16:37:54.629Z,35.31
2022-08-03T16:40:26.545Z,35.53
2022-08-03T16:42:54.727Z,34.80
2022-08-03T16:45:22.997Z,34.96
2022-08-03T16:48:01.544Z,34.77
2022-08-03T16:50:35.100Z,35.22
2022-08-03T16:53:09.291Z,35.30
2022-08-03T16:55:49.045Z,35.63
2022-08-03T16:58:24.290Z,35.17
2022-08-03T17:01:10.896Z,34.66
2022-08-03T17:04:02.411Z,35.35
2022-08-03T17:06:35.195Z,35.40
2022-08-03T17:09:09.047Z,35.98
2022-08-03T17:11:46.772Z,35.49
2022-08-03T17:14:17.012Z,35.95
2022-08-03T17:16:52.713Z,34.86
2022-08-03T17:19:24.152Z,34.97
2022-08-03T17:21:59.916Z,35.19
2022-08-03T17:24:32.186Z,35.03
2022-08-03T17:27:08.938Z,34.28
2022-08-03T17:29:45.340Z,34.13
2022-08-03T17:32:21.405Z,33.62
2022-08-03T17:34:50.135Z,33.90
2022-08-03T17:37:49.950Z,33.56
2022-08-03T17:40:12.385Z,33.64
2022-08-03T17:42:50.876Z,32.91
2022-08-03T17:45:19.565Z,33.35
2022-08-03T17:47:57.166Z,33.19
2022-08-03T17:50:35.483Z,33.20
2022-08-03T17:53:07.326Z,33.19
2022-08-03T17:55:54.838Z,32.99
2022-08-03T17:58:43.683Z,32.51
2022-08-03T18:01:59.675Z,32.53
2022-08-03T18:04:29.751Z,32.91
2022-08-03T18:07:12.161Z,32.72
2022-08-03T18:10:04.730Z,32.56
2022-08-03T18:12:45.130Z,32.50
2022-08-03T18:15:21.339Z,32.45
2022-08-03T18:17:55.603Z,32.27
2022-08-03T18:20:31.310Z,32.13
2022-08-03T18:23:04.930Z,31.89
2022-08-03T18:25:44.409Z,31.63
2022-08-03T18:28:18.809Z,31.37
2022-08-03T18:30:53.734Z,31.16
2022-08-03T18:34:17.132Z,30.93
2022-08-03T18:36:17.912Z,30.69
2022-08-03T18:38:47.517Z,30.51
2022-08-03T18:41:22.081Z,30.33
2022-08-03T18:44:08.995Z,30.15
2022-08-03T18:47:06.891Z,29.90
2022-08-03T18:49:43.260Z,29.68
2022-08-03T18:52:17.582Z,29.51
2022-08-03T18:55:02.903Z,29.36
2022-08-03T18:57:46.565Z,29.22
2022-08-03T19:00:23.871Z,29.10
2022-08-03T19:03:02.460Z,29.02
2022-08-03T19:05:56.434Z,28.93
2022-08-03T19:08:47.969Z,28.89
2022-08-03T19:11:27.785Z,28.86
2022-08-03T19:13:59.208Z,28.75
2022-08-03T19:16:32.711Z,28.70
2022-08-03T19:19:03.938Z,28.58
2022-08-03T19:21:35.880Z,28.52
2022-08-03T19:24:09.701Z,28.56
2022-08-03T19:26:41.239Z,28.49
2022-08-03T19:29:14.762Z,28.54
2022-08-03T19:31:58.750Z,28.55
2022-08-03T19:34:37.544Z,28.30
2022-08-03T19:37:06.295Z,28.05
2022-08-03T19:39:36.079Z,27.90
2022-08-03T19:42:20.152Z,27.83
2022-08-03T19:44:54.710Z,27.81
2022-08-03T19:47:28.976Z,27.47
2022-08-03T19:50:10.572Z,27.34
2022-08-03T19:52:46.118Z,27.16
2022-08-03T19:55:16.152Z,27.17
2022-08-03T19:57:47.059Z,27.13
2022-08-03T20:00:19.895Z,26.92
2022-08-03T20:02:54.110Z,26.85
2022-08-03T20:05:23.555Z,26.86
2022-08-03T20:07:51.755Z,26.73
2022-08-03T20:10:20.282Z,26.81
2022-08-03T20:12:49.586Z,26.66
2022-08-03T20:15:30.841Z,26.53
2022-08-03T20:17:59.932Z,26.47
2022-08-03T20:20:33.675Z,26.49
2022-08-03T20:23:09.670Z,26.36
2022-08-03T20:25:56.992Z,26.33
2022-08-03T20:28:31.846Z,26.28
2022-08-03T20:31:00.451Z,26.18
2022-08-03T20:33:46.633Z,26.16
2022-08-03T20:36:21.379Z,26.11
2022-08-03T20:38:57.266Z,26.05
2022-08-03T20:41:30.715Z,26.02
2022-08-03T20:44:02.104Z,25.85
2022-08-03T20:46:41.704Z,25.81
2022-08-03T20:49:23.525Z,25.73
2022-08-03T20:51:55.241Z,25.61
2022-08-03T20:54:29.838Z,25.53
2022-08-03T20:57:03.704Z,25.55
2022-08-03T20:59:50.015Z,25.51
2022-08-03T21:02:29.767Z,25.38
2022-08-03T21:05:03.352Z,25.48
2022-08-03T21:08:05.464Z,25.35
2022-08-03T21:10:32.798Z,25.38
2022-08-03T21:16:02.540Z,25.27
2022-08-03T21:18:43.633Z,25.15
2022-08-03T21:21:14.639Z,25.14
2022-08-03T21:23:48.896Z,25.06
2022-08-03T21:26:18.748Z,25.01
2022-08-03T21:28:48.083Z,24.97
2022-08-03T21:31:22.362Z,24.88
2022-08-03T21:33:58.266Z,24.87
2022-08-03T21:36:29.931Z,24.87
2022-08-03T21:39:00.429Z,24.85
2022-08-03T21:41:30.296Z,24.78
2022-08-03T21:44:02.285Z,24.72
2022-08-03T21:46:37.756Z,24.67
2022-08-03T21:50:05.166Z,24.66
2022-08-03T21:52:00.356Z,24.66
2022-08-03T21:54:37.183Z,24.62
2022-08-03T21:57:17.338Z,24.58
2022-08-03T21:59:55.940Z,24.56
2022-08-03T22:02:30.128Z,24.47
2022-08-03T22:05:05.198Z,24.35
2022-08-03T22:07:34.637Z,24.30
2022-08-03T22:10:07.209Z,24.32
2022-08-03T22:12:38.245Z,24.31
2022-08-03T22:15:08.561Z,24.29
2022-08-03T22:17:55.106Z,24.37
2022-08-03T22:20:25.745Z,24.38
2022-08-03T22:22:56.954Z,24.33
2022-08-03T22:25:30.589Z,24.29
2022-08-03T22:28:00.528Z,24.29
2022-08-03T22:30:29.522Z,24.28
2022-08-03T22:32:58.933Z,24.27
2022-08-03T22:35:28.442Z,24.21
2022-08-03T22:37:58.340Z,24.10
2022-08-03T22:40:28.785Z,24.08
2022-08-03T22:42:57.840Z,24.02
2022-08-03T22:46:06.379Z,23.96
2022-08-03T22:48:17.752Z,24.07
2022-08-03T22:50:46.156Z,23.97
2022-08-03T22:53:18.152Z,24.03
2022-08-03T22:55:48.681Z,24.06
2022-08-03T22:58:17.013Z,24.00
2022-08-03T23:00:53.595Z,23.87
2022-08-03T23:03:24.381Z,23.79
2022-08-03T23:06:02.635Z,23.77
2022-08-03T23:08:34.385Z,23.72
2022-08-03T23:11:08.327Z,23.67
2022-08-03T23:13:37.088Z,23.65
2022-08-03T23:16:07.231Z,23.71
2022-08-03T23:18:43.313Z,23.71
2022-08-03T23:21:12.542Z,23.62
2022-08-03T23:23:44.334Z,23.56
2022-08-03T23:26:14.544Z,23.54
2022-08-03T23:28:46.117Z,23.42
2022-08-03T23:31:15.060Z,23.39
2022-08-03T23:33:45.344Z,23.37
2022-08-03T23:36:30.527Z,23.37
2022-08-03T23:39:01.865Z,23.43
2022-08-03T23:41:31.876Z,23.40
2022-08-03T23:44:01.808Z,23.37
2022-08-03T23:46:33.485Z,23.28
2022-08-03T23:49:03.187Z,23.25
2022-08-03T23:51:43.094Z,23.34
2022-08-03T23:54:20.446Z,23.19
2022-08-03T23:57:00.330Z,23.16
2022-08-03T23:59:37.640Z,23.14
